Time;durP1;ratioP1;P1;durP2;ratioP2;P2;SDS_P1;SDS_P2;PMS_P1;PMS_P2;Temp;Humidity;BMP_temperature;BMP_pressure;BME280_temperature;BME280_humidity;BME280_pressure;Samples;Min_cycle;Max_cycle;Signal;HPM_P1;HPM_P2
2021/09/07 04:40:30;;;;;;;;;;;;;;;5.97;94.25;100213.94;4945491;29;19985;-80
2021/09/07 04:42:55;;;;;;;;;;;;;;;5.80;93.94;100210.69;4953543;29;19922;-80
2021/09/07 04:45:20;;;;;;;;;;;;;;;5.91;93.85;100219.28;4953791;29;19926;-80
2021/09/07 04:47:45;;;;;;;;;;;;;;;5.92;96.66;100213.13;4953742;29;19923;-81
2021/09/07 04:50:11;;;;;;;;;;;;;;;5.96;98.61;100217.47;4953567;29;19922;-81
2021/09/07 04:52:36;;;;;;;;;;;;;;;6.02;98.71;100213.03;4952459;29;19918;-80
2021/09/07 04:55:02;;;;;;;;;;;;;;;5.88;99.24;100213.22;4953542;29;19958;-81
2021/09/07 04:57:27;;;;;;;;;;;;;;;5.94;100.00;100216.59;4953757;29;19918;-81
2021/09/07 04:59:53;;;;;;;;;;;;;;;6.08;100.00;100216.41;4953855;29;19925;-83
2021/09/07 05:02:18;;;;;;;;;;;;;;;6.11;100.00;100226.88;4968160;28;19919;-81
2021/09/07 05:04:43;;;;;;;;;;;;;;;6.26;100.00;100224.88;4953607;29;19933;-82
2021/09/07 05:07:08;;;;;;;;;;;;;;;6.36;100.00;100227.28;4952588;29;20421;-81
2021/09/07 05:09:33;;;;;;;;;;;;;;;6.41;100.00;100228.97;4952190;29;19922;-84
2021/09/07 05:11:59;;;;;;;;;;;;;;;6.47;100.00;100234.13;4967949;28;19919;-81
2021/09/07 05:14:24;;;;;;;;;;;;;;;6.39;100.00;100225.50;4953485;29;20405;-85
2021/09/07 05:16:49;;;;;;;;;;;;;;;6.38;100.00;100229.88;4952708;29;20279;-82
2021/09/07 05:19:16;;;;;;;;;;;;;;;6.24;100.00;100231.91;4953261;29;20049;-82
2021/09/07 05:21:41;;;;;;;;;;;;;;;6.25;100.00;100234.50;4955975;28;19918;-82
2021/09/07 05:24:06;;;;;;;;;;;;;;;6.21;100.00;100226.69;4955444;29;19940;-82
2021/09/07 05:26:32;;;;;;;;;;;;;;;6.73;100.00;100230.97;4956824;29;19923;-83
2021/09/07 05:28:57;;;;;;;;;;;;;;;6.97;100.00;100234.88;4956774;29;19926;-82
2021/09/07 05:31:22;;;;;;;;;;;;;;;7.07;100.00;100236.41;4971156;28;19922;-82
2021/09/07 05:33:47;;;;;;;;;;;;;;;7.16;100.00;100234.50;4971221;28;20382;-81
2021/09/07 05:36:13;;;;;;;;;;;;;;;7.34;100.00;100234.09;4956582;29;19978;-82
2021/09/07 05:38:38;;;;;;;;;;;;;;;7.19;100.00;100237.06;4955309;29;19918;-81
2021/09/07 05:41:04;;;;;;;;;;;;;;;7.03;100.00;100244.41;4956451;29;20415;-81
2021/09/07 05:43:29;;;;;;;;;;;;;;;6.92;100.00;100247.28;4956303;29;19941;-81
2021/09/07 05:45:54;;;;;;;;;;;;;;;6.76;100.00;100245.84;4956455;29;19985;-81
2021/09/07 05:48:19;;;;;;;;;;;;;;;6.66;100.00;100246.03;4956049;29;19923;-82
2021/09/07 05:50:45;;;;;;;;;;;;;;;6.58;100.00;100247.09;4956342;29;19950;-81
2021/09/07 05:53:10;;;;;;;;;;;;;;;6.51;100.00;100241.03;4954924;29;19918;-81
2021/09/07 05:55:35;;;;;;;;;;;;;;;6.42;100.00;100249.13;4956212;29;19918;-81
2021/09/07 05:58:00;;;;;;;;;;;;;;;6.33;100.00;100251.06;4956133;29;19974;-81
2021/09/07 06:00:26;;;;;;;;;;;;;;;6.39;100.00;100251.84;4956061;29;19981;-81
2021/09/07 06:02:53;;;;;;;;;;;;;;;6.31;100.00;100255.44;4956167;29;19918;-80
2021/09/07 06:05:18;;;;;;;;;;;;;;;6.31;100.00;100255.44;4955917;29;20503;-82
2021/09/07 06:07:43;;;;;;;;;;;;;;;6.22;100.00;100254.75;4954811;29;19922;-81
2021/09/07 06:10:09;;;;;;;;;;;;;;;6.13;100.00;100255.78;4955792;29;20362;-81
2021/09/07 06:12:35;;;;;;;;;;;;;;;6.16;100.00;100261.00;4955959;29;20421;-81
2021/09/07 06:15:00;;;;;;;;;;;;;;;6.14;100.00;100262.78;4955893;29;19997;-82
2021/09/07 06:17:25;;;;;;;;;;;;;;;5.98;100.00;100265.69;4955871;29;19933;-81
2021/09/07 06:19:51;;;;;;;;;;;;;;;6.00;100.00;100271.78;4955775;29;19922;-80
2021/09/07 06:22:16;;;;;;;;;;;;;;;5.96;100.00;100270.06;4955783;29;19969;-81
2021/09/07 06:24:41;;;;;;;;;;;;;;;5.85;100.00;100277.25;4954532;29;19926;-82
2021/09/07 06:27:06;;;;;;;;;;;;;;;5.90;99.86;100275.41;4955614;29;19918;-81
2021/09/07 08:01:32;;;;;;;;;;;;;;;5.89;99.31;100315.75;4986235;23;19933;-84
2021/09/07 08:03:58;;;;;;;;;;;;;;;5.98;99.60;100314.78;4982619;28;19926;-87
2021/09/07 08:06:23;;;;;;;;;;;;;;;5.97;99.08;100308.66;4983368;28;19926;-85
2021/09/07 08:08:50;;;;;;;;;;;;;;;5.98;99.21;100310.41;4965267;28;19929;-85
2021/09/07 08:11:15;;;;;;;;;;;;;;;6.06;99.25;100312.03;4983185;28;20289;-83
2021/09/07 08:13:40;;;;;;;;;;;;;;;5.99;99.77;100312.13;4965927;28;19922;-85
2021/09/07 08:16:06;;;;;;;;;;;;;;;10.95;100.00;100302.09;4981040;28;19976;-88
2021/09/07 08:18:31;;;;;;;;;;;;;;;13.39;96.53;100287.69;4984787;28;20366;-89
2021/09/07 08:20:56;;;;;;;;;;;;;;;14.58;95.12;100288.06;4965305;28;19929;-82
2021/09/07 08:23:21;;;;;;;;;;;;;;;13.77;89.15;100293.00;4984581;28;19928;-84
2021/09/07 08:25:47;;;;;;;;;;;;;;;10.78;98.71;100298.25;4965872;28;20000;-83
2021/09/07 08:28:12;;;;;;;;;;;;;;;9.78;100.00;100298.91;4983146;28;19922;-84
2021/09/07 08:30:37;;;;;;;;;;;;;;;9.27;99.85;100298.69;4964617;28;19933;-84
2021/09/07 08:33:03;;;;;;;;;;;;;;;8.99;99.22;100305.66;4982701;28;19921;-85
2021/09/07 08:35:28;;;;;;;;;;;;;;;8.75;98.34;100308.06;4982105;28;19950;-83
2021/09/07 08:37:53;;;;;;;;;;;;;;;8.80;98.13;100308.81;4965475;28;20254;-84
2021/09/07 08:40:19;;;;;;;;;;;;;;;8.61;97.47;100315.50;4964564;28;20502;-85
2021/09/07 08:42:44;;;;;;;;;;;;;;;8.49;96.69;100314.91;4964138;28;19922;-84
2021/09/07 08:45:12;;;;;;;;;;;;;;;8.59;96.81;100309.41;4964431;28;19953;-86
2021/09/07 08:47:37;;;;;;;;;;;;;;;8.52;96.51;100314.84;4981763;28;20332;-85
2021/09/07 08:50:03;;;;;;;;;;;;;;;8.45;96.13;100315.03;4979959;28;19922;-86
2021/09/07 08:52:28;;;;;;;;;;;;;;;8.46;96.13;100317.63;4966045;28;19932;-86
2021/09/07 08:54:53;;;;;;;;;;;;;;;8.49;95.47;100316.69;4966209;28;19940;-87
2021/09/07 08:57:19;;;;;;;;;;;;;;;8.42;95.82;100310.66;4968240;28;19945;-85
2021/09/07 08:59:44;;;;;;;;;;;;;;;8.41;96.10;100316.84;4967744;28;19918;-86
2021/09/07 09:02:17;;;;;;;;;;;;;;;8.43;96.07;100314.19;4967565;28;19926;-85
2021/09/07 09:04:46;;;;;;;;;;;;;;;8.34;95.69;100308.22;4976350;28;20420;-85
2021/09/07 09:07:17;;;;;;;;;;;;;;;8.53;95.77;100318.34;4986493;28;19976;-84
2021/09/07 09:09:45;;;;;;;;;;;;;;;8.51;95.45;100310.44;4985906;28;20064;-86
2021/09/07 09:12:10;;;;;;;;;;;;;;;8.46;95.24;100317.63;4968355;28;19926;-85
2021/09/07 09:14:37;;;;;;;;;;;;;;;8.56;95.00;100312.13;4967568;28;19925;-85
2021/09/07 09:17:18;;;;;;;;;;;;;;;8.61;95.54;100305.78;4968019;28;20076;-84
2021/09/07 09:19:50;;;;;;;;;;;;;;;8.51;95.39;100307.81;4968230;28;19922;-85
2021/09/07 09:22:15;;;;;;;;;;;;;;;8.55;95.84;100305.94;4975594;28;19933;-84
2021/09/07 09:24:41;;;;;;;;;;;;;;;8.62;95.44;100310.19;4967959;28;19922;-85
2021/09/07 09:27:07;;;;;;;;;;;;;;;8.60;94.93;100308.47;4968804;28;19918;-84
2021/09/07 09:29:34;;;;;;;;;;;;;;;8.57;94.90;100308.53;4967945;28;19928;-86
2021/09/07 09:32:00;;;;;;;;;;;;;;;8.57;95.16;100308.53;4986108;28;19984;-83
2021/09/07 09:34:26;;;;;;;;;;;;;;;8.58;95.61;100300.59;4969018;28;19926;-85
2021/09/07 09:36:56;;;;;;;;;;;;;;;8.61;95.54;100300.50;4986006;28;20004;-86
2021/09/07 09:39:35;;;;;;;;;;;;;;;8.58;95.50;100299.72;4967980;28;19926;-85
2021/09/07 09:42:00;;;;;;;;;;;;;;;8.66;95.56;100300.38;4985575;28;19931;-84
2021/09/07 09:44:27;;;;;;;;;;;;;;;8.74;95.28;100295.75;4984107;28;19925;-84
2021/09/07 09:46:52;;;;;;;;;;;;;;;8.69;95.37;100295.03;4962307;28;20278;-84
2021/09/07 09:49:17;;;;;;;;;;;;;;;8.67;95.08;100294.22;4968093;28;19922;-85
2021/09/07 09:51:43;;;;;;;;;;;;;;;8.70;95.55;100289.69;4966999;28;20280;-85
2021/09/07 09:54:08;;;;;;;;;;;;;;;8.74;95.32;100290.47;4975798;28;19968;-86
2021/09/07 09:56:34;;;;;;;;;;;;;;;8.80;95.26;100292.94;4986048;28;19925;-85
2021/09/07 09:59:00;;;;;;;;;;;;;;;8.74;95.19;100285.19;4985600;28;19933;-85
2021/09/07 10:01:25;;;;;;;;;;;;;;;8.73;95.44;100286.13;4966399;28;20020;-85
2021/09/07 10:03:51;;;;;;;;;;;;;;;8.82;95.31;100282.34;4968366;28;20009;-85
2021/09/07 10:06:18;;;;;;;;;;;;;;;8.80;95.40;100278.88;4967256;28;19921;-84
2021/09/07 10:08:43;;;;;;;;;;;;;;;8.83;95.51;100271.72;4967156;28;19926;-84
2021/09/07 10:11:13;;;;;;;;;;;;;;;8.85;95.95;100275.19;4967181;28;19925;-85
2021/09/07 10:13:41;;;;;;;;;;;;;;;8.85;95.22;100267.25;4975033;28;19925;-84
2021/09/07 10:16:16;;;;;;;;;;;;;;;8.84;95.88;100268.19;4966041;28;19926;-87
2021/09/07 10:19:07;;;;;;;;;;;;;;;8.77;95.64;100263.97;4985524;28;19954;-84
2021/09/07 10:26:37;;;;;;;;;;;;;;;8.87;96.01;100256.66;4985502;28;19930;-85
2021/09/07 10:29:04;;;;;;;;;;;;;;;8.90;95.43;100253.91;4983544;28;19929;-84
2021/09/07 10:31:43;;;;;;;;;;;;;;;8.93;95.34;100252.97;4966478;28;19919;-84
2021/09/07 10:34:11;;;;;;;;;;;;;;;8.96;95.48;100250.25;4980788;28;20009;-84
2021/09/07 10:36:55;;;;;;;;;;;;;;;8.91;95.44;100245.09;4965979;28;19921;-84
2021/09/07 10:39:42;;;;;;;;;;;;;;;8.87;95.34;100240.78;4974745;28;20281;-85
2021/09/07 10:42:13;;;;;;;;;;;;;;;8.88;95.17;100243.38;4983763;28;19917;-85
2021/09/07 10:44:39;;;;;;;;;;;;;;;8.87;95.47;100238.16;4959711;28;19922;-85
2021/09/07 10:47:09;;;;;;;;;;;;;;;8.90;96.03;100231.03;4973339;28;19918;-84
2021/09/07 10:49:37;;;;;;;;;;;;;;;8.90;95.77;100230.13;4970213;28;19921;-85
2021/09/07 10:54:52;;;;;;;;;;;;;;;8.95;95.41;100225.59;4984753;28;19925;-85
2021/09/07 10:57:33;;;;;;;;;;;;;;;8.93;94.89;100229.19;4984332;28;20072;-85
2021/09/07 11:00:01;;;;;;;;;;;;;;;8.90;95.14;100231.03;4964201;28;20392;-85
2021/09/07 11:02:36;;;;;;;;;;;;;;;8.87;94.87;100217.91;4970387;28;19980;-85
2021/09/07 11:05:06;;;;;;;;;;;;;;;8.87;94.19;100220.53;4971228;28;19926;-84
2021/09/07 11:07:40;;;;;;;;;;;;;;;8.93;94.00;100208.91;4963549;28;20309;-85
2021/09/07 11:10:26;;;;;;;;;;;;;;;8.86;94.57;100210.88;4969754;28;19922;-85
2021/09/07 11:12:54;;;;;;;;;;;;;;;8.86;93.93;100207.38;4962933;28;19918;-86
2021/09/07 11:15:22;;;;;;;;;;;;;;;8.86;94.91;100204.72;4962196;28;20065;-85
2021/09/07 11:17:50;;;;;;;;;;;;;;;8.87;93.82;100198.50;4978724;28;20296;-85
2021/09/07 11:20:15;;;;;;;;;;;;;;;8.91;93.69;100203.66;4964962;28;20370;-84
2021/09/07 11:22:40;;;;;;;;;;;;;;;8.84;93.60;100207.41;4964916;28;19933;-85
2021/09/07 11:25:10;;;;;;;;;;;;;;;8.91;94.23;100201.00;4962549;28;20396;-83
2021/09/07 11:28:12;;;;;;;;;;;;;;;8.76;95.18;100206.78;4986877;28;20365;-83
2021/09/07 11:30:44;;;;;;;;;;;;;;;8.86;93.72;100200.28;4906087;29;19922;-84
2021/09/07 11:33:14;;;;;;;;;;;;;;;8.98;93.61;100200.84;4977575;28;19942;-84
2021/09/07 11:35:48;;;;;;;;;;;;;;;8.93;93.89;100203.63;4962509;28;19930;-86
2021/09/07 11:38:15;;;;;;;;;;;;;;;8.90;93.83;100194.03;4963248;28;20425;-84
2021/09/07 11:40:51;;;;;;;;;;;;;;;8.84;94.18;100195.94;4963079;28;20053;-84
2021/09/07 11:43:28;;;;;;;;;;;;;;;8.84;94.59;100199.47;4962765;28;19925;-88
2021/09/07 11:46:03;;;;;;;;;;;;;;;8.86;94.02;100189.72;4969187;28;19922;-84
2021/09/07 11:48:29;;;;;;;;;;;;;;;8.86;92.90;100194.16;4962576;28;19925;-87
2021/09/07 11:50:54;;;;;;;;;;;;;;;8.82;93.72;100190.75;4961251;28;19986;-86
2021/09/07 11:53:19;;;;;;;;;;;;;;;8.71;93.67;100185.75;4964194;28;19989;-84
2021/09/07 11:55:48;;;;;;;;;;;;;;;8.77;93.62;100184.69;4960710;28;19922;-86
2021/09/07 11:58:22;;;;;;;;;;;;;;;8.80;92.91;100179.34;4961497;28;19962;-84
2021/09/07 12:00:57;;;;;;;;;;;;;;;8.75;93.50;100175.97;4967105;28;20010;-85
2021/09/07 12:03:22;;;;;;;;;;;;;;;8.72;93.39;100176.06;4981984;28;19925;-85
2021/09/07 12:05:57;;;;;;;;;;;;;;;8.83;93.66;100173.09;4982259;28;19929;-85
2021/09/07 12:08:36;;;;;;;;;;;;;;;8.74;92.69;100171.56;4965859;28;19925;-84
2021/09/07 12:11:01;;;;;;;;;;;;;;;8.85;93.24;100172.13;4981846;28;19922;-83
2021/09/07 12:13:27;;;;;;;;;;;;;;;8.93;94.23;100174.53;4973206;28;19928;-86
2021/09/07 12:15:52;;;;;;;;;;;;;;;8.90;93.95;100174.63;4980812;28;19926;-84
2021/09/07 12:18:32;;;;;;;;;;;;;;;8.89;93.26;100168.50;4980972;28;19934;-86
2021/09/07 12:21:07;;;;;;;;;;;;;;;9.03;95.74;100169.84;4981955;28;19921;-85
2021/09/07 12:23:33;;;;;;;;;;;;;;;8.88;93.98;100157.97;4964193;28;19926;-87
2021/09/07 12:25:59;;;;;;;;;;;;;;;8.91;93.79;100164.03;4977853;28;19922;-85
2021/09/07 12:28:24;;;;;;;;;;;;;;;8.99;93.17;100162.94;4982275;28;19968;-85
2021/09/07 12:30:49;;;;;;;;;;;;;;;8.96;93.66;100152.47;4967678;28;19945;-85
2021/09/07 12:33:19;;;;;;;;;;;;;;;8.91;93.59;100156.09;4986636;28;20289;-85
2021/09/07 12:35:50;;;;;;;;;;;;;;;8.93;93.25;100157.84;4965288;28;20876;-85
2021/09/07 12:38:20;;;;;;;;;;;;;;;8.94;93.46;100151.66;4969054;28;20392;-87
2021/09/07 12:40:47;;;;;;;;;;;;;;;8.87;92.72;100154.47;4968674;28;19932;-89
2021/09/07 12:43:15;;;;;;;;;;;;;;;8.93;92.25;100142.84;4967305;28;19925;-85
2021/09/07 12:45:41;;;;;;;;;;;;;;;8.88;93.72;100147.41;4967527;28;20300;-86
2021/09/07 12:48:06;;;;;;;;;;;;;;;8.91;93.49;100149.94;4985649;28;20010;-85
2021/09/07 12:50:33;;;;;;;;;;;;;;;8.95;93.02;100143.66;4970356;28;19918;-85
2021/09/07 12:52:59;;;;;;;;;;;;;;;8.86;92.67;100142.16;4968412;28;19922;-88
2021/09/07 12:55:25;;;;;;;;;;;;;;;8.90;93.15;100140.28;4970243;28;19940;-85
2021/09/07 12:57:52;;;;;;;;;;;;;;;8.86;93.37;100139.50;4986165;28;20373;-85
2021/09/07 13:00:17;;;;;;;;;;;;;;;8.81;92.86;100140.59;4963788;28;19948;-84
2021/09/07 13:02:42;;;;;;;;;;;;;;;8.81;93.01;100133.50;4968818;28;20325;-87
2021/09/07 13:05:08;;;;;;;;;;;;;;;8.91;93.50;100136.75;4966686;28;19922;-86
2021/09/07 13:07:33;;;;;;;;;;;;;;;8.96;92.95;100136.59;4984305;28;19918;-89
2021/09/07 13:09:58;;;;;;;;;;;;;;;8.85;92.28;100126.34;4984604;28;20320;-86
2021/09/07 13:12:24;;;;;;;;;;;;;;;8.91;92.10;100124.38;4968185;28;20040;-84
2021/09/07 13:14:49;;;;;;;;;;;;;;;8.89;92.95;100126.22;4965302;28;19932;-88
2021/09/07 13:17:14;;;;;;;;;;;;;;;8.94;92.99;100128.72;4983537;28;19926;-88
2021/09/07 13:19:39;;;;;;;;;;;;;;;8.90;92.19;100122.66;4967824;28;20312;-87
2021/09/07 13:22:05;;;;;;;;;;;;;;;8.89;92.56;100112.16;4969353;28;19945;-85
2021/09/07 13:24:30;;;;;;;;;;;;;;;8.90;91.97;100112.09;4970900;28;19973;-85
2021/09/07 13:26:55;;;;;;;;;;;;;;;8.86;91.90;100107.81;4966933;28;19924;-88
2021/09/07 13:29:21;;;;;;;;;;;;;;;8.86;92.32;100105.16;4966378;28;19922;-86
2021/09/07 13:31:46;;;;;;;;;;;;;;;8.83;92.62;100102.59;4970370;28;20302;-88
2021/09/07 13:34:11;;;;;;;;;;;;;;;8.89;94.08;100104.22;4985686;28;19918;-85
2021/09/07 13:36:36;;;;;;;;;;;;;;;8.89;93.39;100105.06;4985708;28;19922;-88
2021/09/07 13:39:02;;;;;;;;;;;;;;;8.82;92.29;100105.31;4968534;28;19957;-85
2021/09/07 13:41:27;;;;;;;;;;;;;;;8.90;92.14;100104.16;4967303;28;19928;-88
2021/09/07 13:43:52;;;;;;;;;;;;;;;8.87;92.52;100106.91;4966850;28;19956;-88
2021/09/07 13:46:18;;;;;;;;;;;;;;;8.86;92.24;100097.22;4960891;28;19926;-89
2021/09/07 13:48:58;;;;;;;;;;;;;;;9.00;93.09;100093.28;5110096;27;19946;-86
2021/09/07 13:51:24;;;;;;;;;;;;;;;8.99;92.12;100094.22;5109983;28;19920;-86
2021/09/07 13:53:50;;;;;;;;;;;;;;;8.87;92.02;100091.03;5110136;28;20834;-87
2021/09/07 13:56:15;;;;;;;;;;;;;;;8.87;92.46;100092.81;5105839;28;19924;-88
2021/09/07 13:58:40;;;;;;;;;;;;;;;8.97;92.00;100090.78;5102124;28;19930;-86
2021/09/07 14:01:05;;;;;;;;;;;;;;;8.94;92.43;100085.56;5100858;28;19955;-91
2021/09/07 14:03:31;;;;;;;;;;;;;;;8.98;93.12;100081.91;5105621;28;20440;-88
2021/09/07 14:05:56;;;;;;;;;;;;;;;9.13;95.78;100080.56;5108547;28;20378;-87
2021/09/07 14:08:21;;;;;;;;;;;;;;;9.09;94.32;100082.44;5109080;28;20271;-84
2021/09/07 14:10:46;;;;;;;;;;;;;;;8.96;92.57;100081.09;5100429;28;20282;-85
2021/09/07 14:13:12;;;;;;;;;;;;;;;8.99;92.55;100076.56;5108143;28;19982;-85
2021/09/07 14:15:37;;;;;;;;;;;;;;;8.99;92.69;100063.34;5107047;28;20301;-91
2021/09/07 14:18:02;;;;;;;;;;;;;;;9.02;92.32;100060.63;5109207;28;20367;-89
2021/09/07 14:20:28;;;;;;;;;;;;;;;8.99;92.34;100060.72;5109307;28;19920;-89
2021/09/07 14:22:53;;;;;;;;;;;;;;;8.99;93.28;100060.72;5107830;28;20294;-87
2021/09/07 14:25:18;;;;;;;;;;;;;;;9.16;93.32;100056.66;5107414;28;19916;-87
2021/09/07 14:27:44;;;;;;;;;;;;;;;8.97;92.67;100053.78;5102883;28;19924;-86
2021/09/07 14:30:09;;;;;;;;;;;;;;;9.14;94.42;100051.41;5105894;28;19916;-87
2021/09/07 14:32:34;;;;;;;;;;;;;;;9.00;92.81;100054.53;5108092;28;19924;-86
2021/09/07 14:35:00;;;;;;;;;;;;;;;8.91;93.68;100057.44;5107121;28;19920;-89
2021/09/07 14:37:25;;;;;;;;;;;;;;;8.89;93.26;100056.66;5105551;28;19931;-89
2021/09/07 14:39:51;;;;;;;;;;;;;;;8.93;92.78;100050.34;5098823;28;20391;-87
2021/09/07 14:42:17;;;;;;;;;;;;;;;8.89;93.19;100040.78;5108185;28;20406;-90
2021/09/07 14:44:42;;;;;;;;;;;;;;;8.91;92.39;100041.59;5106451;28;19920;-86
2021/09/07 14:47:08;;;;;;;;;;;;;;;8.88;92.70;100039.91;5107018;28;20268;-93
2021/09/07 14:49:33;;;;;;;;;;;;;;;8.84;92.81;100048.88;5107828;28;19993;-86
2021/09/07 14:51:58;;;;;;;;;;;;;;;8.91;92.71;100038.97;5107938;28;20282;-85
2021/09/07 14:54:24;;;;;;;;;;;;;;;8.90;92.59;100038.09;5106546;28;19924;-88
2021/09/07 14:56:49;;;;;;;;;;;;;;;8.90;92.77;100039.84;5108171;28;20363;-87
2021/09/07 14:59:15;;;;;;;;;;;;;;;8.90;93.30;100038.09;5099056;28;19998;-90
2021/09/07 15:01:40;;;;;;;;;;;;;;;8.90;92.76;100030.19;5093257;28;19931;-92
2021/09/07 15:04:05;;;;;;;;;;;;;;;8.84;92.27;100035.66;5093531;28;19924;-86
2021/09/07 15:06:30;;;;;;;;;;;;;;;8.87;92.01;100030.28;5092654;28;19951;-87
2021/09/07 15:08:56;;;;;;;;;;;;;;;8.82;92.36;100029.56;5093307;28;19946;-86
2021/09/07 15:11:21;;;;;;;;;;;;;;;8.83;92.38;100025.13;5093826;28;19920;-86
2021/09/07 15:13:46;;;;;;;;;;;;;;;8.81;92.55;100019.03;5092661;28;20298;-87
2021/09/07 15:16:11;;;;;;;;;;;;;;;8.89;92.92;100017.00;5091759;28;19923;-85
2021/09/07 15:18:37;;;;;;;;;;;;;;;8.91;93.90;100017.81;5092638;28;19951;-89
2021/09/07 15:21:03;;;;;;;;;;;;;;;8.87;93.43;100011.78;5093423;28;20446;-87
2021/09/07 15:23:28;;;;;;;;;;;;;;;9.05;95.20;100018.22;5092637;28;20410;-90
2021/09/07 15:25:55;;;;;;;;;;;;;;;9.04;95.06;100011.19;5093149;28;20432;-86
2021/09/07 15:28:20;;;;;;;;;;;;;;;9.00;92.59;100012.22;5094293;28;19931;-87
2021/09/07 15:30:45;;;;;;;;;;;;;;;8.95;93.53;100010.66;5092029;28;19924;-84
2021/09/07 15:33:11;;;;;;;;;;;;;;;8.98;93.83;100013.19;5092930;28;20429;-86
2021/09/07 15:35:36;;;;;;;;;;;;;;;8.98;94.52;100018.47;5092380;28;19947;-86
2021/09/07 15:38:01;;;;;;;;;;;;;;;8.91;93.63;100010.75;5094436;28;19920;-86
2021/09/07 15:40:26;;;;;;;;;;;;;;;8.99;94.85;100009.66;5093264;28;19932;-91
2021/09/07 15:42:52;;;;;;;;;;;;;;;9.00;94.34;100008.72;5094660;28;19916;-87
2021/09/07 15:45:17;;;;;;;;;;;;;;;8.88;92.62;100008.19;5091488;28;20276;-87
2021/09/07 15:47:42;;;;;;;;;;;;;;;8.86;92.13;99994.19;5094096;28;19965;-89
2021/09/07 15:50:08;;;;;;;;;;;;;;;8.84;92.36;99995.13;5093027;28;20369;-92
2021/09/07 15:52:33;;;;;;;;;;;;;;;8.77;92.39;100001.53;5092925;28;20021;-86
2021/09/07 15:54:59;;;;;;;;;;;;;;;8.80;92.69;100004.94;5092688;28;19920;-89
2021/09/07 15:57:24;;;;;;;;;;;;;;;8.94;93.88;100001.88;5092562;28;20465;-87
2021/09/07 15:59:49;;;;;;;;;;;;;;;8.81;91.95;100009.31;5091520;28;19926;-87
2021/09/07 16:02:18;;;;;;;;;;;;;;;8.85;92.11;100000.38;5092703;28;20371;-85
2021/09/07 16:04:43;;;;;;;;;;;;;;;8.85;92.43;100003.00;5092679;28;19916;-85
2021/09/07 16:07:10;;;;;;;;;;;;;;;8.88;94.98;100000.28;5092641;28;20325;-86
2021/09/07 16:09:35;;;;;;;;;;;;;;;8.90;93.74;99995.81;5092831;28;20003;-91
2021/09/07 16:12:00;;;;;;;;;;;;;;;8.88;93.35;99991.47;5091996;28;20003;-89
2021/09/07 16:14:25;;;;;;;;;;;;;;;8.89;93.10;99985.31;5082366;28;19923;-85
2021/09/07 16:16:51;;;;;;;;;;;;;;;8.84;92.19;99989.84;5093631;28;19916;-90
2021/09/07 16:19:16;;;;;;;;;;;;;;;8.78;92.33;99990.94;5092281;28;19912;-86
2021/09/07 16:21:41;;;;;;;;;;;;;;;8.76;92.29;99991.88;5087490;28;20366;-86
2021/09/07 16:24:12;;;;;;;;;;;;;;;8.81;91.56;99988.19;5093402;28;19912;-85
2021/09/07 16:26:37;;;;;;;;;;;;;;;8.70;91.99;99988.53;5092134;28;20351;-85
2021/09/07 16:29:03;;;;;;;;;;;;;;;8.75;92.64;99980.44;5092116;28;19923;-85
2021/09/07 16:31:28;;;;;;;;;;;;;;;8.79;91.78;99981.22;5091955;28;19979;-90
2021/09/07 16:33:53;;;;;;;;;;;;;;;8.73;91.67;99975.22;5091980;28;19973;-86
2021/09/07 16:36:19;;;;;;;;;;;;;;;8.77;91.76;99983.03;5093147;28;19995;-85
2021/09/07 16:38:44;;;;;;;;;;;;;;;8.78;91.37;99975.06;5091979;28;20422;-89
2021/09/07 16:41:09;;;;;;;;;;;;;;;8.68;92.18;99963.94;5093238;28;19951;-88
2021/09/07 16:43:35;;;;;;;;;;;;;;;8.75;91.39;99974.31;5092906;28;19916;-89
2021/09/07 16:46:00;;;;;;;;;;;;;;;8.74;92.66;99973.44;5092097;28;20015;-90
2021/09/07 16:48:25;;;;;;;;;;;;;;;8.75;92.42;99961.97;5091654;28;20068;-89
2021/09/07 16:50:52;;;;;;;;;;;;;;;8.69;91.81;99968.28;5093194;28;19961;-85
2021/09/07 16:53:29;;;;;;;;;;;;;;;8.68;92.10;99965.69;5091238;28;19916;-85
2021/09/07 16:55:54;;;;;;;;;;;;;;;8.68;92.23;99963.06;5091186;28;20379;-86
2021/09/07 16:58:20;;;;;;;;;;;;;;;8.63;92.54;99965.00;5091434;28;19935;-88
2021/09/07 17:00:46;;;;;;;;;;;;;;;8.65;92.82;99955.25;5090246;28;19928;-87
2021/09/07 17:03:12;;;;;;;;;;;;;;;8.67;92.45;99956.06;5107129;28;20326;-87
2021/09/07 17:05:37;;;;;;;;;;;;;;;8.68;91.94;99953.38;5091349;28;19917;-87
2021/09/07 17:10:38;;;;;;;;;;;;;;;8.67;92.15;99956.06;5092269;28;19926;-85
2021/09/07 17:13:04;;;;;;;;;;;;;;;8.68;92.62;99957.78;5092472;28;20359;-88
2021/09/07 17:15:29;;;;;;;;;;;;;;;8.68;92.51;99958.66;5107110;28;19920;-86
2021/09/07 17:17:56;;;;;;;;;;;;;;;8.62;92.15;99952.72;5091398;28;20461;-89
2021/09/07 17:20:21;;;;;;;;;;;;;;;8.65;92.57;99950.84;5090938;28;20010;-90
2021/09/07 17:22:47;;;;;;;;;;;;;;;8.54;92.85;99948.53;5090965;28;19995;-88
2021/09/07 17:25:13;;;;;;;;;;;;;;;8.70;92.28;99951.53;5091578;28;19922;-89
2021/09/07 17:27:39;;;;;;;;;;;;;;;8.65;92.17;99937.63;5090831;28;19967;-85
2021/09/07 17:30:06;;;;;;;;;;;;;;;8.69;92.69;99933.94;5089851;28;20362;-90
2021/09/07 17:43:32;;;;;;;;;;;;;;;8.64;92.86;99946.44;5072061;28;19912;-84
2021/09/07 17:45:57;;;;;;;;;;;;;;;8.65;92.69;99942.06;5089406;28;19941;-84
2021/09/07 17:48:22;;;;;;;;;;;;;;;8.67;92.41;99933.16;5090426;28;19920;-87
2021/09/07 17:50:48;;;;;;;;;;;;;;;8.62;92.51;99940.34;5092231;28;19916;-85
2021/09/07 17:53:13;;;;;;;;;;;;;;;8.70;92.41;99930.41;5090613;28;20322;-88
2021/09/07 17:55:38;;;;;;;;;;;;;;;8.65;92.22;99939.41;5090665;28;19923;-87
2021/09/07 17:58:04;;;;;;;;;;;;;;;8.64;92.20;99940.31;5090836;28;19916;-85
2021/09/07 18:00:29;;;;;;;;;;;;;;;8.70;92.45;99945.41;5089282;28;19923;-87
2021/09/07 18:02:54;;;;;;;;;;;;;;;8.67;92.36;99948.13;5090654;28;20325;-84
2021/09/07 18:05:20;;;;;;;;;;;;;;;8.65;92.23;99936.78;5090525;28;19924;-84
2021/09/07 18:07:45;;;;;;;;;;;;;;;8.68;91.92;99947.22;5090427;28;19916;-85
2021/09/07 18:10:10;;;;;;;;;;;;;;;8.61;92.57;99951.84;5091363;28;19920;-85
2021/09/07 18:12:36;;;;;;;;;;;;;;;8.63;92.40;99947.38;5090378;28;19965;-84
2021/09/07 18:15:01;;;;;;;;;;;;;;;8.63;92.48;99954.41;5089241;28;19919;-87
2021/09/07 18:17:27;;;;;;;;;;;;;;;8.64;92.56;99948.25;5105673;28;20284;-86
2021/09/07 18:19:54;;;;;;;;;;;;;;;8.63;92.42;99952.66;5090304;28;20360;-87
2021/09/07 18:22:20;;;;;;;;;;;;;;;8.65;92.25;99952.63;5091664;28;19920;-86
2021/09/07 18:24:45;;;;;;;;;;;;;;;8.67;92.00;99950.78;5091668;28;19958;-85
2021/09/07 18:27:11;;;;;;;;;;;;;;;8.63;91.99;99949.13;5090276;28;19938;-85
2021/09/07 18:29:37;;;;;;;;;;;;;;;8.69;91.88;99948.94;5090376;28;19920;-88
2021/09/07 18:32:03;;;;;;;;;;;;;;;8.52;92.19;99946.84;5091531;28;19920;-85
2021/09/07 18:34:31;;;;;;;;;;;;;;;8.56;92.15;99959.03;5107234;28;19923;-88
2021/09/07 18:36:56;;;;;;;;;;;;;;;8.60;92.08;99958.03;5094340;28;19923;-85
2021/09/07 18:39:22;;;;;;;;;;;;;;;8.58;91.85;99956.34;5095237;28;19916;-85
2021/09/07 18:41:47;;;;;;;;;;;;;;;8.57;92.17;99965.19;5093972;28;19924;-85
2021/09/07 18:44:13;;;;;;;;;;;;;;;8.55;92.14;99962.59;5094512;28;19923;-85
2021/09/07 18:46:39;;;;;;;;;;;;;;;8.56;91.82;99959.03;5092316;28;20019;-89
2021/09/07 18:49:04;;;;;;;;;;;;;;;8.60;91.82;99967.72;5093684;28;20015;-86
2021/09/07 18:51:29;;;;;;;;;;;;;;;8.64;92.08;99974.66;5098991;27;19964;-89
2021/09/07 18:53:55;;;;;;;;;;;;;;;8.59;92.05;99971.31;5093953;28;19970;-86
2021/09/07 18:56:26;;;;;;;;;;;;;;;8.56;91.83;99979.31;5093769;28;19974;-85
2021/09/07 18:58:51;;;;;;;;;;;;;;;8.54;91.88;99974.94;5109241;28;19917;-84
2021/09/07 19:01:16;;;;;;;;;;;;;;;8.58;91.75;99977.47;5109189;28;19923;-88
2021/09/07 19:03:42;;;;;;;;;;;;;;;8.55;91.62;99978.44;5093530;28;19963;-85
2021/09/07 19:06:07;;;;;;;;;;;;;;;8.56;91.73;99972.25;5093620;28;19916;-88
2021/09/07 19:08:35;;;;;;;;;;;;;;;8.51;91.77;99982.94;5093149;28;20042;-88
2021/09/07 19:11:00;;;;;;;;;;;;;;;8.60;91.32;99980.94;5093580;28;19926;-85
2021/09/07 19:13:27;;;;;;;;;;;;;;;8.53;91.68;99981.13;5093519;28;19912;-85
2021/09/07 19:15:52;;;;;;;;;;;;;;;8.59;92.02;99981.88;5091942;28;20366;-84
2021/09/07 19:18:17;;;;;;;;;;;;;;;8.52;91.73;99978.53;5093703;28;19965;-85